createdAt,value
2023-01-12T00:05:00.486Z,8.10
2023-01-12T00:10:02.356Z,7.90
2023-01-12T00:15:04.511Z,8.50
2023-01-12T00:20:06.905Z,7.70
2023-01-12T00:30:11.962Z,7.80
2023-01-12T00:35:13.927Z,8.00
2023-01-12T00:40:16.697Z,8.00
2023-01-12T00:50:23.673Z,7.70
2023-01-12T00:55:25.463Z,7.90
2023-01-12T01:05:46.475Z,8.10
2023-01-12T01:10:48.288Z,8.00
2023-01-12T01:15:50.136Z,8.00
2023-01-12T01:20:51.906Z,8.00
2023-01-12T01:25:54.232Z,7.90
2023-01-12T01:31:07.289Z,7.90
2023-01-12T01:36:10.647Z,7.80
2023-01-12T01:41:22.995Z,7.80
2023-01-12T02:02:35.768Z,7.90
2023-01-12T02:07:38.819Z,7.90
2023-01-12T02:18:28.039Z,7.90
2023-01-12T02:24:06.981Z,8.10
2023-01-12T02:29:27.204Z,8.00
2023-01-12T02:35:02.467Z,7.80
2023-01-12T02:40:21.535Z,7.90
2023-01-12T02:45:47.927Z,8.00
2023-01-12T02:51:12.086Z,8.00
2023-01-12T02:56:34.693Z,8.10
2023-01-12T03:01:37.874Z,8.10
2023-01-12T03:06:51.915Z,8.30
2023-01-12T03:11:56.852Z,8.20
2023-01-12T03:22:05.545Z,8.30
2023-01-12T03:27:20.193Z,8.30
2023-01-12T03:32:22.844Z,8.40
2023-01-12T03:37:36.291Z,8.50
2023-01-12T03:42:41.615Z,8.30
2023-01-12T03:47:44.534Z,8.40
2023-01-12T03:52:47.794Z,8.40
2023-01-12T03:57:51.694Z,9.60
2023-01-12T04:03:04.303Z,8.40
2023-01-12T04:08:06.530Z,8.50
2023-01-12T04:13:08.342Z,8.50
2023-01-12T04:18:11.515Z,9.30
2023-01-12T04:23:13.319Z,8.50
2023-01-12T04:28:16.986Z,8.50
2023-01-12T04:33:18.743Z,8.60
2023-01-12T04:38:20.587Z,8.60
2023-01-12T04:43:22.446Z,9.10
2023-01-12T04:48:25.303Z,8.60
2023-01-12T04:53:27.275Z,8.50
2023-01-12T05:08:52.636Z,8.80
2023-01-12T05:13:55.674Z,8.60
2023-01-12T05:18:57.549Z,9.40
2023-01-12T05:23:59.354Z,9.60
2023-01-12T05:29:01.291Z,8.40
2023-01-12T05:34:03.342Z,8.50
2023-01-12T05:39:05.756Z,8.50
2023-01-12T05:44:07.491Z,8.70
2023-01-12T05:49:11.092Z,8.70
2023-01-12T05:54:12.956Z,8.50
2023-01-12T05:59:14.738Z,8.50
2023-01-12T06:09:18.830Z,8.50
2023-01-12T06:14:20.638Z,8.70
2023-01-12T06:19:22.430Z,8.60
2023-01-12T06:24:24.333Z,8.60
2023-01-12T06:29:26.199Z,8.60
2023-01-12T06:34:28.137Z,8.60
2023-01-12T06:44:32.384Z,8.70
2023-01-12T06:49:34.183Z,8.80
2023-01-12T06:54:35.957Z,8.70
2023-01-12T06:59:39.049Z,10.00
2023-01-12T07:04:41.850Z,8.60
2023-01-12T07:09:43.604Z,8.70
2023-01-12T07:14:45.430Z,8.70
2023-01-12T07:19:47.239Z,9.30
2023-01-12T07:24:49.198Z,8.60
2023-01-12T07:29:50.990Z,8.40
2023-01-12T07:34:52.880Z,8.60
2023-01-12T07:39:54.584Z,9.20
2023-01-12T07:44:56.386Z,8.60
2023-01-12T07:55:00.362Z,8.90
2023-01-12T08:05:04.949Z,8.80
2023-01-12T08:10:07.188Z,9.00
2023-01-12T08:15:11.375Z,9.00
2023-01-12T08:20:24.876Z,9.10
2023-01-12T08:25:32.083Z,9.10
2023-01-12T08:30:34.210Z,9.00
2023-01-12T08:35:37.510Z,9.20
2023-01-12T08:40:57.823Z,9.10
2023-01-12T08:46:07.965Z,9.10
2023-01-12T08:51:09.887Z,9.10
2023-01-12T08:56:11.919Z,9.10
2023-01-12T09:01:16.801Z,9.20
2023-01-12T09:06:25.556Z,9.20
2023-01-12T09:11:29.091Z,9.20
2023-01-12T09:16:32.330Z,9.20
2023-01-12T09:21:38.273Z,9.30
2023-01-12T09:26:42.019Z,9.20
2023-01-12T09:31:45.858Z,9.20
2023-01-12T09:47:19.594Z,9.30
2023-01-12T09:52:27.214Z,9.40
2023-01-12T09:57:57.195Z,9.50
2023-01-12T10:03:04.879Z,9.50
2023-01-12T10:08:14.351Z,9.50
2023-01-12T10:13:16.995Z,9.60
2023-01-12T10:18:37.174Z,9.60
2023-01-12T10:23:38.966Z,9.50
2023-01-12T10:28:46.626Z,9.70
2023-01-12T10:34:07.603Z,9.70
2023-01-12T10:39:34.065Z,9.70
2023-01-12T10:44:35.968Z,9.60
2023-01-12T10:49:38.399Z,9.80
2023-01-12T10:54:41.586Z,10.10
2023-01-12T11:00:00.174Z,10.20
2023-01-12T11:05:02.156Z,10.20
2023-01-12T11:10:26.010Z,10.00
2023-01-12T11:15:29.368Z,10.20
2023-01-12T11:20:49.609Z,10.20
2023-01-12T11:25:53.506Z,10.40
2023-01-12T11:31:20.727Z,10.40
2023-01-12T11:36:40.921Z,10.50
2023-01-12T11:42:09.691Z,10.30
2023-01-12T11:47:19.812Z,10.10
2023-01-12T11:57:26.856Z,10.30
2023-01-12T12:02:51.193Z,10.20
2023-01-12T12:08:16.396Z,10.40
2023-01-12T12:14:02.167Z,10.40
2023-01-12T12:19:42.316Z,10.30
2023-01-12T12:24:56.329Z,10.30
2023-01-12T12:30:10.107Z,10.50
2023-01-12T12:35:24.176Z,10.60
2023-01-12T12:41:20.027Z,10.60
2023-01-12T12:46:24.726Z,10.50
2023-01-12T12:51:29.342Z,10.60
2023-01-12T12:56:35.474Z,10.50
2023-01-12T13:01:42.747Z,10.70
2023-01-12T13:06:49.507Z,10.80
2023-01-12T13:11:59.682Z,10.80
2023-01-12T13:17:21.315Z,10.70
2023-01-12T13:22:48.124Z,10.70
2023-01-12T13:27:55.703Z,10.80
2023-01-12T13:33:26.448Z,10.80
2023-01-12T13:38:34.406Z,10.70
2023-01-12T13:43:41.775Z,10.60
2023-01-12T13:48:47.631Z,10.50
2023-01-12T13:54:00.850Z,10.50
2023-01-12T13:59:06.321Z,10.60
2023-01-12T14:04:15.927Z,10.70
2023-01-12T14:09:37.231Z,10.40
2023-01-12T14:15:23.403Z,10.50
2023-01-12T14:20:27.942Z,10.60
2023-01-12T14:30:32.530Z,10.50
2023-01-12T14:35:34.321Z,10.50
2023-01-12T14:40:36.280Z,10.40
2023-01-12T14:46:02.481Z,10.50
2023-01-12T14:51:16.360Z,10.30
2023-01-12T14:56:23.956Z,10.40
2023-01-12T15:01:35.910Z,10.40
2023-01-12T15:06:42.869Z,10.40
2023-01-12T15:11:44.732Z,10.50
2023-01-12T15:17:05.277Z,10.40
2023-01-12T15:22:27.729Z,10.50
2023-01-12T15:27:30.298Z,10.50
2023-01-12T15:32:48.788Z,10.40
2023-01-12T15:37:53.577Z,10.30
2023-01-12T15:42:55.398Z,10.40
2023-01-12T15:53:01.197Z,10.30
2023-01-12T15:58:03.183Z,10.30
2023-01-12T16:03:06.154Z,10.40
2023-01-12T16:08:07.971Z,10.40
2023-01-12T16:13:11.931Z,10.40
2023-01-12T16:18:13.679Z,10.40
2023-01-12T16:23:15.443Z,10.20
2023-01-12T16:33:19.777Z,9.30
2023-01-12T16:43:24.297Z,10.30
2023-01-12T16:53:28.220Z,10.30
2023-01-12T16:58:29.999Z,10.30
2023-01-12T17:03:32.061Z,10.50
2023-01-12T17:08:33.914Z,10.40
2023-01-12T17:18:39.272Z,10.30
2023-01-12T17:23:42.905Z,10.40
2023-01-12T17:28:46.295Z,10.30
2023-01-12T17:33:53.330Z,10.40
2023-01-12T17:38:55.171Z,10.30
2023-01-12T17:43:57.724Z,10.40
2023-01-12T17:49:01.591Z,10.90
2023-01-12T17:54:05.151Z,10.20
2023-01-12T18:04:09.575Z,10.30
2023-01-12T18:09:12.115Z,10.30
2023-01-12T18:14:13.995Z,10.50
2023-01-12T18:24:17.982Z,10.30
2023-01-12T18:29:19.771Z,10.40
2023-01-12T18:34:21.671Z,10.40
2023-01-12T18:39:23.612Z,10.30
2023-01-12T18:49:32.942Z,10.40
2023-01-12T18:54:51.995Z,10.40
2023-01-12T19:00:00.151Z,10.40
2023-01-12T19:10:07.469Z,10.40
2023-01-12T19:15:28.452Z,10.40
2023-01-12T19:20:31.645Z,10.40
2023-01-12T19:25:51.994Z,10.40
2023-01-12T19:30:53.899Z,10.40
2023-01-12T19:41:11.089Z,10.40
2023-01-12T19:46:15.697Z,10.50
2023-01-12T19:51:17.499Z,10.50
2023-01-12T19:56:19.310Z,10.40
2023-01-12T20:01:22.327Z,10.40
2023-01-12T20:06:25.147Z,11.10
2023-01-12T20:11:27.143Z,10.40
2023-01-12T20:16:29.696Z,10.40
2023-01-12T20:21:31.544Z,10.40
2023-01-12T20:26:33.336Z,10.50
2023-01-12T20:31:36.726Z,10.60
2023-01-12T20:36:39.725Z,10.50
2023-01-12T20:41:42.602Z,10.50
2023-01-12T20:46:44.429Z,11.80
2023-01-12T20:51:46.804Z,10.60
2023-01-12T20:56:48.638Z,10.60
2023-01-12T21:01:50.567Z,10.60
2023-01-12T21:06:52.481Z,10.60
2023-01-12T21:18:16.511Z,10.70
2023-01-12T21:23:18.355Z,10.70
2023-01-12T21:28:20.146Z,10.60
2023-01-12T21:33:22.021Z,10.70
2023-01-12T21:38:25.389Z,10.50
2023-01-12T21:43:27.201Z,10.50
2023-01-12T21:53:31.833Z,10.70
2023-01-12T21:58:35.530Z,10.60
2023-01-12T22:03:37.748Z,10.90
2023-01-12T22:08:41.795Z,10.70
2023-01-12T22:13:44.068Z,10.80
2023-01-12T22:18:49.120Z,10.70
2023-01-12T22:23:50.988Z,10.70
2023-01-12T22:28:52.712Z,12.60
2023-01-12T22:34:04.101Z,10.60
2023-01-12T22:39:05.818Z,10.60
2023-01-12T22:44:07.715Z,10.70
2023-01-12T22:49:11.409Z,10.60
2023-01-12T22:54:13.225Z,10.70
2023-01-12T22:59:14.994Z,10.60
2023-01-12T23:09:18.864Z,10.50
2023-01-12T23:14:20.642Z,10.60
2023-01-12T23:19:22.366Z,10.60
2023-01-12T23:24:24.272Z,10.70
2023-01-12T23:29:26.009Z,10.60
2023-01-12T23:34:28.864Z,10.60
2023-01-12T23:39:30.632Z,10.70
2023-01-12T23:44:32.463Z,10.70
2023-01-12T23:49:34.206Z,10.60
2023-01-12T23:54:38.689Z,10.60
2023-01-12T23:59:40.451Z,10.60
